sensor_id;sensor_type;location;lat;lon;timestamp;P1;durP1;ratioP1;P2;durP2;ratioP2
71734;SDS011;59577;52.122;5.406;2022-08-14T00:01:00;5.45;;;2.95;;
71734;SDS011;59577;52.122;5.406;2022-08-14T00:03:35;8.15;;;2.92;;
71734;SDS011;59577;52.122;5.406;2022-08-14T00:06:05;7.10;;;3.20;;
71734;SDS011;59577;52.122;5.406;2022-08-14T00:08:52;4.93;;;3.10;;
71734;SDS011;59577;52.122;5.406;2022-08-14T00:11:19;4.28;;;2.95;;
71734;SDS011;59577;52.122;5.406;2022-08-14T00:13:46;2.80;;;2.60;;
71734;SDS011;59577;52.122;5.406;2022-08-14T00:16:18;5.15;;;2.90;;
71734;SDS011;59577;52.122;5.406;2022-08-14T00:19:05;4.43;;;2.87;;
71734;SDS011;59577;52.122;5.406;2022-08-14T00:21:46;3.22;;;2.92;;
71734;SDS011;59577;52.122;5.406;2022-08-14T00:24:16;3.08;;;2.78;;
71734;SDS011;59577;52.122;5.406;2022-08-14T00:26:56;3.63;;;2.80;;
71734;SDS011;59577;52.122;5.406;2022-08-14T00:29:28;4.25;;;3.00;;
71734;SDS011;59577;52.122;5.406;2022-08-14T00:32:06;3.13;;;2.83;;
71734;SDS011;59577;52.122;5.406;2022-08-14T00:34:53;5.28;;;3.00;;
71734;SDS011;59577;52.122;5.406;2022-08-14T00:37:21;6.25;;;3.05;;
71734;SDS011;59577;52.122;5.406;2022-08-14T00:39:48;3.58;;;2.95;;
71734;SDS011;59577;52.122;5.406;2022-08-14T00:42:20;4.13;;;3.20;;
71734;SDS011;59577;52.122;5.406;2022-08-14T00:45:08;4.40;;;3.00;;
71734;SDS011;59577;52.122;5.406;2022-08-14T00:47:39;3.28;;;2.90;;
71734;SDS011;59577;52.122;5.406;2022-08-14T00:50:10;4.65;;;3.05;;
71734;SDS011;59577;52.122;5.406;2022-08-14T00:52:44;5.47;;;2.85;;
71734;SDS011;59577;52.122;5.406;2022-08-14T00:55:16;6.15;;;2.83;;
71734;SDS011;59577;52.122;5.406;2022-08-14T00:57:43;3.83;;;2.87;;
71734;SDS011;59577;52.122;5.406;2022-08-14T01:00:12;7.53;;;3.47;;
71734;SDS011;59577;52.122;5.406;2022-08-14T01:03:00;3.20;;;2.90;;
71734;SDS011;59577;52.122;5.406;2022-08-14T01:05:28;5.25;;;3.00;;
71734;SDS011;59577;52.122;5.406;2022-08-14T01:08:17;4.47;;;2.95;;
71734;SDS011;59577;52.122;5.406;2022-08-14T01:11:11;4.67;;;2.90;;
71734;SDS011;59577;52.122;5.406;2022-08-14T01:13:44;3.47;;;3.15;;
71734;SDS011;59577;52.122;5.406;2022-08-14T01:16:21;4.30;;;3.00;;
71734;SDS011;59577;52.122;5.406;2022-08-14T01:18:53;4.30;;;3.05;;
71734;SDS011;59577;52.122;5.406;2022-08-14T01:21:39;3.58;;;3.28;;
71734;SDS011;59577;52.122;5.406;2022-08-14T01:24:12;3.70;;;3.37;;
71734;SDS011;59577;52.122;5.406;2022-08-14T01:26:56;6.40;;;3.25;;
71734;SDS011;59577;52.122;5.406;2022-08-14T01:29:25;6.40;;;3.38;;
71734;SDS011;59577;52.122;5.406;2022-08-14T01:32:15;4.80;;;3.30;;
71734;SDS011;59577;52.122;5.406;2022-08-14T01:34:52;7.18;;;3.60;;
71734;SDS011;59577;52.122;5.406;2022-08-14T01:37:42;3.93;;;3.60;;
71734;SDS011;59577;52.122;5.406;2022-08-14T01:40:22;7.05;;;3.35;;
71734;SDS011;59577;52.122;5.406;2022-08-14T01:42:58;4.32;;;3.22;;
71734;SDS011;59577;52.122;5.406;2022-08-14T01:45:27;4.32;;;3.03;;
71734;SDS011;59577;52.122;5.406;2022-08-14T01:47:56;5.10;;;3.38;;
71734;SDS011;59577;52.122;5.406;2022-08-14T01:50:28;3.67;;;3.37;;
71734;SDS011;59577;52.122;5.406;2022-08-14T01:52:57;6.82;;;3.67;;
71734;SDS011;59577;52.122;5.406;2022-08-14T01:55:27;4.13;;;3.20;;
71734;SDS011;59577;52.122;5.406;2022-08-14T01:57:57;6.22;;;4.03;;
71734;SDS011;59577;52.122;5.406;2022-08-14T02:00:45;3.70;;;3.40;;
71734;SDS011;59577;52.122;5.406;2022-08-14T02:03:13;7.20;;;3.97;;
71734;SDS011;59577;52.122;5.406;2022-08-14T02:05:41;4.35;;;3.70;;
71734;SDS011;59577;52.122;5.406;2022-08-14T02:08:08;3.70;;;3.38;;
71734;SDS011;59577;52.122;5.406;2022-08-14T02:10:39;3.55;;;3.25;;
71734;SDS011;59577;52.122;5.406;2022-08-14T02:13:12;4.13;;;3.72;;
71734;SDS011;59577;52.122;5.406;2022-08-14T02:15:41;3.87;;;3.53;;
71734;SDS011;59577;52.122;5.406;2022-08-14T02:18:08;3.67;;;3.38;;
71734;SDS011;59577;52.122;5.406;2022-08-14T02:20:37;4.28;;;3.47;;
71734;SDS011;59577;52.122;5.406;2022-08-14T02:23:05;4.70;;;3.92;;
71734;SDS011;59577;52.122;5.406;2022-08-14T02:25:34;6.35;;;4.43;;
71734;SDS011;59577;52.122;5.406;2022-08-14T02:28:00;5.30;;;3.90;;
71734;SDS011;59577;52.122;5.406;2022-08-14T02:30:47;4.65;;;4.22;;
71734;SDS011;59577;52.122;5.406;2022-08-14T02:33:17;4.32;;;3.92;;
71734;SDS011;59577;52.122;5.406;2022-08-14T02:35:44;4.40;;;4.00;;
71734;SDS011;59577;52.122;5.406;2022-08-14T02:38:22;5.53;;;3.78;;
71734;SDS011;59577;52.122;5.406;2022-08-14T02:40:59;4.80;;;3.97;;
71734;SDS011;59577;52.122;5.406;2022-08-14T02:43:26;5.00;;;4.03;;
71734;SDS011;59577;52.122;5.406;2022-08-14T02:46:02;4.50;;;4.20;;
71734;SDS011;59577;52.122;5.406;2022-08-14T02:48:29;6.93;;;4.32;;
71734;SDS011;59577;52.122;5.406;2022-08-14T02:51:21;4.28;;;3.67;;
71734;SDS011;59577;52.122;5.406;2022-08-14T02:53:48;5.00;;;3.50;;
71734;SDS011;59577;52.122;5.406;2022-08-14T02:56:17;3.97;;;3.67;;
71734;SDS011;59577;52.122;5.406;2022-08-14T02:59:05;5.72;;;4.10;;
71734;SDS011;59577;52.122;5.406;2022-08-14T03:01:33;4.78;;;4.03;;
71734;SDS011;59577;52.122;5.406;2022-08-14T03:04:09;8.40;;;3.97;;
71734;SDS011;59577;52.122;5.406;2022-08-14T03:06:36;5.87;;;4.40;;
71734;SDS011;59577;52.122;5.406;2022-08-14T03:09:23;6.30;;;3.90;;
71734;SDS011;59577;52.122;5.406;2022-08-14T03:12:07;6.00;;;4.07;;
71734;SDS011;59577;52.122;5.406;2022-08-14T03:14:34;4.35;;;4.05;;
71734;SDS011;59577;52.122;5.406;2022-08-14T03:17:03;4.35;;;4.05;;
71734;SDS011;59577;52.122;5.406;2022-08-14T03:19:35;4.60;;;4.20;;
71734;SDS011;59577;52.122;5.406;2022-08-14T03:22:02;4.85;;;4.40;;
71734;SDS011;59577;52.122;5.406;2022-08-14T03:24:34;5.38;;;4.32;;
71734;SDS011;59577;52.122;5.406;2022-08-14T03:27:04;3.92;;;3.58;;
71734;SDS011;59577;52.122;5.406;2022-08-14T03:29:31;4.57;;;4.18;;
71734;SDS011;59577;52.122;5.406;2022-08-14T03:31:58;4.63;;;4.23;;
71734;SDS011;59577;52.122;5.406;2022-08-14T03:34:25;5.53;;;4.45;;
71734;SDS011;59577;52.122;5.406;2022-08-14T03:37:13;4.63;;;4.20;;
71734;SDS011;59577;52.122;5.406;2022-08-14T03:39:59;4.38;;;3.97;;
71734;SDS011;59577;52.122;5.406;2022-08-14T03:42:26;4.68;;;4.10;;
71734;SDS011;59577;52.122;5.406;2022-08-14T03:45:11;4.50;;;4.10;;
71734;SDS011;59577;52.122;5.406;2022-08-14T03:47:59;4.63;;;3.88;;
71734;SDS011;59577;52.122;5.406;2022-08-14T03:50:27;4.40;;;4.00;;
71734;SDS011;59577;52.122;5.406;2022-08-14T03:53:00;4.90;;;4.43;;
71734;SDS011;59577;52.122;5.406;2022-08-14T03:55:28;4.22;;;3.88;;
71734;SDS011;59577;52.122;5.406;2022-08-14T03:57:56;4.87;;;4.00;;
71734;SDS011;59577;52.122;5.406;2022-08-14T04:00:25;5.20;;;4.70;;
71734;SDS011;59577;52.122;5.406;2022-08-14T04:03:10;5.05;;;4.03;;
71734;SDS011;59577;52.122;5.406;2022-08-14T04:05:44;5.07;;;4.57;;
71734;SDS011;59577;52.122;5.406;2022-08-14T04:08:14;4.85;;;4.35;;
71734;SDS011;59577;52.122;5.406;2022-08-14T04:10:55;5.80;;;4.13;;
71734;SDS011;59577;52.122;5.406;2022-08-14T04:13:23;4.68;;;4.28;;
71734;SDS011;59577;52.122;5.406;2022-08-14T04:15:53;4.90;;;4.40;;
71734;SDS011;59577;52.122;5.406;2022-08-14T04:18:30;5.50;;;4.95;;
71734;SDS011;59577;52.122;5.406;2022-08-14T04:20:59;5.03;;;4.60;;
71734;SDS011;59577;52.122;5.406;2022-08-14T04:23:26;5.40;;;4.50;;
71734;SDS011;59577;52.122;5.406;2022-08-14T04:25:58;4.85;;;4.45;;
71734;SDS011;59577;52.122;5.406;2022-08-14T04:28:29;4.88;;;4.47;;
71734;SDS011;59577;52.122;5.406;2022-08-14T04:31:17;5.82;;;4.82;;
71734;SDS011;59577;52.122;5.406;2022-08-14T04:34:04;6.25;;;4.82;;
71734;SDS011;59577;52.122;5.406;2022-08-14T04:36:33;4.43;;;4.03;;
71734;SDS011;59577;52.122;5.406;2022-08-14T04:39:19;4.55;;;4.15;;
71734;SDS011;59577;52.122;5.406;2022-08-14T04:42:11;5.15;;;4.65;;
71734;SDS011;59577;52.122;5.406;2022-08-14T04:44:57;5.32;;;4.50;;
71734;SDS011;59577;52.122;5.406;2022-08-14T04:47:26;5.22;;;4.82;;
71734;SDS011;59577;52.122;5.406;2022-08-14T04:50:11;5.33;;;4.77;;
71734;SDS011;59577;52.122;5.406;2022-08-14T04:52:39;5.45;;;4.95;;
71734;SDS011;59577;52.122;5.406;2022-08-14T04:55:07;7.00;;;5.25;;
71734;SDS011;59577;52.122;5.406;2022-08-14T04:57:34;8.63;;;4.97;;
71734;SDS011;59577;52.122;5.406;2022-08-14T05:00:00;5.55;;;5.00;;
71734;SDS011;59577;52.122;5.406;2022-08-14T05:02:27;6.37;;;4.37;;
71734;SDS011;59577;52.122;5.406;2022-08-14T05:04:54;5.88;;;5.18;;
71734;SDS011;59577;52.122;5.406;2022-08-14T05:07:23;6.25;;;4.60;;
71734;SDS011;59577;52.122;5.406;2022-08-14T05:10:10;5.40;;;4.65;;
71734;SDS011;59577;52.122;5.406;2022-08-14T05:12:41;4.75;;;4.35;;
71734;SDS011;59577;52.122;5.406;2022-08-14T05:15:28;5.33;;;4.83;;
71734;SDS011;59577;52.122;5.406;2022-08-14T05:17:57;4.95;;;4.53;;
71734;SDS011;59577;52.122;5.406;2022-08-14T05:20:44;5.53;;;4.80;;
71734;SDS011;59577;52.122;5.406;2022-08-14T05:23:33;5.50;;;4.78;;
71734;SDS011;59577;52.122;5.406;2022-08-14T05:26:02;5.55;;;4.97;;
71734;SDS011;59577;52.122;5.406;2022-08-14T05:28:40;8.50;;;4.90;;
71734;SDS011;59577;52.122;5.406;2022-08-14T05:31:12;6.75;;;5.03;;
71734;SDS011;59577;52.122;5.406;2022-08-14T05:33:46;5.15;;;4.75;;
71734;SDS011;59577;52.122;5.406;2022-08-14T05:36:22;5.30;;;4.80;;
71734;SDS011;59577;52.122;5.406;2022-08-14T05:38:49;8.55;;;4.75;;
71734;SDS011;59577;52.122;5.406;2022-08-14T05:41:18;7.10;;;5.00;;
71734;SDS011;59577;52.122;5.406;2022-08-14T05:43:47;6.32;;;5.00;;
71734;SDS011;59577;52.122;5.406;2022-08-14T05:46:16;6.47;;;4.70;;
71734;SDS011;59577;52.122;5.406;2022-08-14T05:48:54;5.28;;;4.88;;
71734;SDS011;59577;52.122;5.406;2022-08-14T05:51:22;5.70;;;5.20;;
71734;SDS011;59577;52.122;5.406;2022-08-14T05:53:50;5.87;;;5.27;;
71734;SDS011;59577;52.122;5.406;2022-08-14T05:56:36;8.38;;;5.55;;
71734;SDS011;59577;52.122;5.406;2022-08-14T05:59:03;6.80;;;5.20;;
71734;SDS011;59577;52.122;5.406;2022-08-14T06:01:32;8.07;;;5.68;;
71734;SDS011;59577;52.122;5.406;2022-08-14T06:03:59;9.13;;;6.45;;
71734;SDS011;59577;52.122;5.406;2022-08-14T06:06:25;7.93;;;6.10;;
71734;SDS011;59577;52.122;5.406;2022-08-14T06:08:51;10.10;;;6.78;;
71734;SDS011;59577;52.122;5.406;2022-08-14T06:11:19;9.18;;;6.72;;
71734;SDS011;59577;52.122;5.406;2022-08-14T06:13:56;6.57;;;6.07;;
71734;SDS011;59577;52.122;5.406;2022-08-14T06:16:22;10.80;;;6.53;;
71734;SDS011;59577;52.122;5.406;2022-08-14T06:18:49;10.23;;;6.40;;
71734;SDS011;59577;52.122;5.406;2022-08-14T06:21:18;8.23;;;7.50;;
71734;SDS011;59577;52.122;5.406;2022-08-14T06:23:47;11.07;;;7.57;;
71734;SDS011;59577;52.122;5.406;2022-08-14T06:26:14;8.20;;;7.38;;
71734;SDS011;59577;52.122;5.406;2022-08-14T06:28:46;10.02;;;8.13;;
71734;SDS011;59577;52.122;5.406;2022-08-14T06:31:16;8.17;;;7.37;;
71734;SDS011;59577;52.122;5.406;2022-08-14T06:33:45;11.98;;;7.90;;
71734;SDS011;59577;52.122;5.406;2022-08-14T06:36:32;10.00;;;7.55;;
71734;SDS011;59577;52.122;5.406;2022-08-14T06:38:58;9.30;;;8.00;;
71734;SDS011;59577;52.122;5.406;2022-08-14T06:41:25;9.10;;;7.82;;
71734;SDS011;59577;52.122;5.406;2022-08-14T06:44:11;9.17;;;7.57;;
71734;SDS011;59577;52.122;5.406;2022-08-14T06:46:38;8.93;;;7.25;;
71734;SDS011;59577;52.122;5.406;2022-08-14T06:49:04;8.65;;;7.90;;
71734;SDS011;59577;52.122;5.406;2022-08-14T06:51:31;11.57;;;8.75;;
71734;SDS011;59577;52.122;5.406;2022-08-14T06:54:09;9.60;;;8.63;;
71734;SDS011;59577;52.122;5.406;2022-08-14T06:56:37;9.53;;;8.73;;
71734;SDS011;59577;52.122;5.406;2022-08-14T06:59:03;8.98;;;8.30;;
71734;SDS011;59577;52.122;5.406;2022-08-14T07:01:31;11.57;;;9.10;;
71734;SDS011;59577;52.122;5.406;2022-08-14T07:04:21;9.20;;;8.30;;
71734;SDS011;59577;52.122;5.406;2022-08-14T07:07:07;9.27;;;8.07;;
71734;SDS011;59577;52.122;5.406;2022-08-14T07:09:33;9.37;;;8.50;;
71734;SDS011;59577;52.122;5.406;2022-08-14T07:12:15;9.05;;;8.18;;
71734;SDS011;59577;52.122;5.406;2022-08-14T07:15:03;10.75;;;8.98;;
71734;SDS011;59577;52.122;5.406;2022-08-14T07:17:31;11.30;;;8.40;;
71734;SDS011;59577;52.122;5.406;2022-08-14T07:20:01;8.90;;;8.02;;
71734;SDS011;59577;52.122;5.406;2022-08-14T07:22:28;9.23;;;8.00;;
71734;SDS011;59577;52.122;5.406;2022-08-14T07:25:15;8.07;;;7.35;;
71734;SDS011;59577;52.122;5.406;2022-08-14T07:27:42;8.98;;;7.93;;
71734;SDS011;59577;52.122;5.406;2022-08-14T07:30:08;8.50;;;7.60;;
71734;SDS011;59577;52.122;5.406;2022-08-14T07:32:55;9.23;;;7.55;;
71734;SDS011;59577;52.122;5.406;2022-08-14T07:35:22;8.30;;;6.67;;
71734;SDS011;59577;52.122;5.406;2022-08-14T07:37:55;7.35;;;6.72;;
71734;SDS011;59577;52.122;5.406;2022-08-14T07:40:22;7.80;;;5.95;;
71734;SDS011;59577;52.122;5.406;2022-08-14T07:42:54;8.07;;;7.28;;
71734;SDS011;59577;52.122;5.406;2022-08-14T07:45:21;7.85;;;7.03;;
71734;SDS011;59577;52.122;5.406;2022-08-14T07:47:48;7.93;;;7.13;;
71734;SDS011;59577;52.122;5.406;2022-08-14T07:50:15;7.57;;;6.90;;
71734;SDS011;59577;52.122;5.406;2022-08-14T07:52:46;8.30;;;6.93;;
71734;SDS011;59577;52.122;5.406;2022-08-14T07:55:15;6.70;;;6.10;;
71734;SDS011;59577;52.122;5.406;2022-08-14T07:57:46;6.63;;;5.97;;
71734;SDS011;59577;52.122;5.406;2022-08-14T08:00:18;7.30;;;5.53;;
71734;SDS011;59577;52.122;5.406;2022-08-14T08:02:56;7.43;;;6.40;;
71734;SDS011;59577;52.122;5.406;2022-08-14T08:05:25;7.82;;;6.53;;
71734;SDS011;59577;52.122;5.406;2022-08-14T08:07:53;6.93;;;6.30;;
71734;SDS011;59577;52.122;5.406;2022-08-14T08:10:21;9.98;;;6.80;;
71734;SDS011;59577;52.122;5.406;2022-08-14T08:13:18;8.67;;;5.60;;
71734;SDS011;59577;52.122;5.406;2022-08-14T08:15:51;6.68;;;6.10;;
71734;SDS011;59577;52.122;5.406;2022-08-14T08:18:19;6.60;;;6.00;;
71734;SDS011;59577;52.122;5.406;2022-08-14T08:20:54;6.97;;;6.22;;
71734;SDS011;59577;52.122;5.406;2022-08-14T08:23:25;6.45;;;5.95;;
71734;SDS011;59577;52.122;5.406;2022-08-14T08:26:06;6.63;;;6.00;;
71734;SDS011;59577;52.122;5.406;2022-08-14T08:28:33;6.38;;;5.88;;
71734;SDS011;59577;52.122;5.406;2022-08-14T08:31:02;6.13;;;5.55;;
71734;SDS011;59577;52.122;5.406;2022-08-14T08:33:31;5.57;;;5.07;;
71734;SDS011;59577;52.122;5.406;2022-08-14T08:36:04;6.18;;;5.35;;
71734;SDS011;59577;52.122;5.406;2022-08-14T08:38:33;6.27;;;5.87;;
71734;SDS011;59577;52.122;5.406;2022-08-14T08:41:19;6.35;;;5.90;;
71734;SDS011;59577;52.122;5.406;2022-08-14T08:43:46;6.28;;;5.78;;
71734;SDS011;59577;52.122;5.406;2022-08-14T08:46:19;6.65;;;5.25;;
71734;SDS011;59577;52.122;5.406;2022-08-14T08:48:52;5.72;;;5.32;;
71734;SDS011;59577;52.122;5.406;2022-08-14T08:51:22;5.77;;;5.37;;
71734;SDS011;59577;52.122;5.406;2022-08-14T08:54:03;7.10;;;5.45;;
71734;SDS011;59577;52.122;5.406;2022-08-14T08:56:44;5.90;;;5.50;;
71734;SDS011;59577;52.122;5.406;2022-08-14T08:59:16;6.30;;;5.80;;
71734;SDS011;59577;52.122;5.406;2022-08-14T09:01:47;5.70;;;5.30;;
71734;SDS011;59577;52.122;5.406;2022-08-14T09:04:29;6.03;;;5.53;;
71734;SDS011;59577;52.122;5.406;2022-08-14T09:06:59;6.30;;;5.22;;
71734;SDS011;59577;52.122;5.406;2022-08-14T09:09:36;6.05;;;5.60;;
71734;SDS011;59577;52.122;5.406;2022-08-14T09:12:25;5.60;;;5.10;;
71734;SDS011;59577;52.122;5.406;2022-08-14T09:14:59;5.93;;;5.20;;
71734;SDS011;59577;52.122;5.406;2022-08-14T09:17:37;6.17;;;5.67;;
71734;SDS011;59577;52.122;5.406;2022-08-14T09:20:06;6.00;;;5.32;;
71734;SDS011;59577;52.122;5.406;2022-08-14T09:22:37;7.20;;;5.32;;
71734;SDS011;59577;52.122;5.406;2022-08-14T09:25:13;5.53;;;5.07;;
71734;SDS011;59577;52.122;5.406;2022-08-14T09:27:40;5.88;;;5.25;;
71734;SDS011;59577;52.122;5.406;2022-08-14T09:30:08;5.10;;;4.60;;
71734;SDS011;59577;52.122;5.406;2022-08-14T09:33:02;5.60;;;5.18;;
71734;SDS011;59577;52.122;5.406;2022-08-14T09:38:50;6.43;;;5.63;;
71734;SDS011;59577;52.122;5.406;2022-08-14T09:45:14;5.70;;;5.30;;
71734;SDS011;59577;52.122;5.406;2022-08-14T09:48:13;5.10;;;4.80;;
71734;SDS011;59577;52.122;5.406;2022-08-14T09:51:18;5.85;;;5.35;;
71734;SDS011;59577;52.122;5.406;2022-08-14T09:54:00;5.85;;;5.47;;
71734;SDS011;59577;52.122;5.406;2022-08-14T09:56:48;7.82;;;5.40;;
71734;SDS011;59577;52.122;5.406;2022-08-14T09:59:22;7.40;;;5.53;;
71734;SDS011;59577;52.122;5.406;2022-08-14T10:01:52;6.38;;;5.80;;
71734;SDS011;59577;52.122;5.406;2022-08-14T10:04:25;6.60;;;5.88;;
71734;SDS011;59577;52.122;5.406;2022-08-14T10:07:01;6.05;;;5.55;;
71734;SDS011;59577;52.122;5.406;2022-08-14T10:09:28;7.15;;;5.90;;
71734;SDS011;59577;52.122;5.406;2022-08-14T10:12:00;5.83;;;5.37;;
71734;SDS011;59577;52.122;5.406;2022-08-14T10:14:32;6.22;;;5.65;;
71734;SDS011;59577;52.122;5.406;2022-08-14T10:17:01;5.97;;;5.43;;
71734;SDS011;59577;52.122;5.406;2022-08-14T10:19:32;5.35;;;4.82;;
71734;SDS011;59577;52.122;5.406;2022-08-14T10:22:03;5.20;;;4.80;;
71734;SDS011;59577;52.122;5.406;2022-08-14T10:24:53;5.63;;;5.27;;
71734;SDS011;59577;52.122;5.406;2022-08-14T10:27:21;6.43;;;5.35;;
71734;SDS011;59577;52.122;5.406;2022-08-14T10:29:50;5.65;;;4.85;;
71734;SDS011;59577;52.122;5.406;2022-08-14T10:32:20;5.35;;;4.88;;
71734;SDS011;59577;52.122;5.406;2022-08-14T10:35:08;6.68;;;5.22;;
71734;SDS011;59577;52.122;5.406;2022-08-14T10:37:49;6.67;;;4.90;;
71734;SDS011;59577;52.122;5.406;2022-08-14T10:40:27;5.20;;;4.90;;
71734;SDS011;59577;52.122;5.406;2022-08-14T10:43:19;7.47;;;5.00;;
71734;SDS011;59577;52.122;5.406;2022-08-14T10:45:51;5.90;;;5.40;;
71734;SDS011;59577;52.122;5.406;2022-08-14T10:48:57;6.05;;;4.70;;
71734;SDS011;59577;52.122;5.406;2022-08-14T10:51:30;4.40;;;3.97;;
71734;SDS011;59577;52.122;5.406;2022-08-14T10:54:04;5.05;;;4.70;;
71734;SDS011;59577;52.122;5.406;2022-08-14T10:56:54;4.50;;;4.20;;
71734;SDS011;59577;52.122;5.406;2022-08-14T10:59:22;4.95;;;4.47;;
71734;SDS011;59577;52.122;5.406;2022-08-14T11:02:00;4.70;;;4.30;;
71734;SDS011;59577;52.122;5.406;2022-08-14T11:04:28;7.67;;;4.27;;
71734;SDS011;59577;52.122;5.406;2022-08-14T11:06:56;5.63;;;3.60;;
71734;SDS011;59577;52.122;5.406;2022-08-14T11:09:23;3.90;;;3.60;;
71734;SDS011;59577;52.122;5.406;2022-08-14T11:11:57;4.25;;;3.92;;
71734;SDS011;59577;52.122;5.406;2022-08-14T11:14:50;4.35;;;3.92;;
71734;SDS011;59577;52.122;5.406;2022-08-14T11:17:27;3.93;;;3.53;;
71734;SDS011;59577;52.122;5.406;2022-08-14T11:19:58;4.03;;;3.60;;
71734;SDS011;59577;52.122;5.406;2022-08-14T11:22:26;4.90;;;3.85;;
71734;SDS011;59577;52.122;5.406;2022-08-14T11:25:16;8.15;;;3.90;;
71734;SDS011;59577;52.122;5.406;2022-08-14T11:27:46;3.47;;;3.28;;
71734;SDS011;59577;52.122;5.406;2022-08-14T11:30:27;4.60;;;3.60;;
71734;SDS011;59577;52.122;5.406;2022-08-14T11:33:20;3.63;;;3.38;;
71734;SDS011;59577;52.122;5.406;2022-08-14T11:35:48;3.42;;;2.83;;
71734;SDS011;59577;52.122;5.406;2022-08-14T11:38:15;3.75;;;3.25;;
71734;SDS011;59577;52.122;5.406;2022-08-14T11:40:45;4.22;;;3.83;;
71734;SDS011;59577;52.122;5.406;2022-08-14T11:43:13;4.90;;;3.87;;
71734;SDS011;59577;52.122;5.406;2022-08-14T11:45:40;4.07;;;3.67;;
71734;SDS011;59577;52.122;5.406;2022-08-14T11:48:19;5.35;;;3.83;;
71734;SDS011;59577;52.122;5.406;2022-08-14T11:51:11;3.80;;;3.40;;
71734;SDS011;59577;52.122;5.406;2022-08-14T11:53:41;3.97;;;3.67;;
71734;SDS011;59577;52.122;5.406;2022-08-14T11:56:11;3.90;;;3.63;;
71734;SDS011;59577;52.122;5.406;2022-08-14T11:58:37;4.80;;;3.70;;
71734;SDS011;59577;52.122;5.406;2022-08-14T12:01:07;4.95;;;3.63;;
71734;SDS011;59577;52.122;5.406;2022-08-14T12:06:22;3.70;;;3.40;;
71734;SDS011;59577;52.122;5.406;2022-08-14T12:09:00;5.50;;;3.90;;
71734;SDS011;59577;52.122;5.406;2022-08-14T12:11:36;4.55;;;3.80;;
71734;SDS011;59577;52.122;5.406;2022-08-14T12:14:09;3.60;;;3.40;;
71734;SDS011;59577;52.122;5.406;2022-08-14T12:17:04;3.97;;;3.60;;
71734;SDS011;59577;52.122;5.406;2022-08-14T12:19:42;4.43;;;4.13;;
71734;SDS011;59577;52.122;5.406;2022-08-14T12:22:10;4.40;;;4.10;;
71734;SDS011;59577;52.122;5.406;2022-08-14T12:24:42;4.55;;;4.25;;
71734;SDS011;59577;52.122;5.406;2022-08-14T12:27:12;4.70;;;4.25;;
71734;SDS011;59577;52.122;5.406;2022-08-14T12:29:50;4.35;;;4.15;;
71734;SDS011;59577;52.122;5.406;2022-08-14T12:32:18;6.82;;;4.10;;
71734;SDS011;59577;52.122;5.406;2022-08-14T12:34:51;4.13;;;3.93;;
71734;SDS011;59577;52.122;5.406;2022-08-14T12:37:27;4.53;;;4.13;;
71734;SDS011;59577;52.122;5.406;2022-08-14T12:39:54;4.30;;;3.95;;
71734;SDS011;59577;52.122;5.406;2022-08-14T12:42:31;4.15;;;3.85;;
71734;SDS011;59577;52.122;5.406;2022-08-14T12:45:06;4.15;;;3.85;;
71734;SDS011;59577;52.122;5.406;2022-08-14T12:47:33;4.10;;;3.70;;
71734;SDS011;59577;52.122;5.406;2022-08-14T12:50:00;4.20;;;3.80;;
71734;SDS011;59577;52.122;5.406;2022-08-14T12:52:35;4.63;;;3.65;;
71734;SDS011;59577;52.122;5.406;2022-08-14T12:55:26;3.95;;;3.50;;
71734;SDS011;59577;52.122;5.406;2022-08-14T12:58:12;4.07;;;3.78;;
71734;SDS011;59577;52.122;5.406;2022-08-14T13:00:59;4.10;;;3.90;;
71734;SDS011;59577;52.122;5.406;2022-08-14T13:03:45;4.50;;;3.90;;
71734;SDS011;59577;52.122;5.406;2022-08-14T13:06:17;4.28;;;3.88;;
71734;SDS011;59577;52.122;5.406;2022-08-14T13:08:44;4.40;;;4.00;;
71734;SDS011;59577;52.122;5.406;2022-08-14T13:11:18;4.50;;;4.10;;
71734;SDS011;59577;52.122;5.406;2022-08-14T13:13:49;4.57;;;3.90;;
71734;SDS011;59577;52.122;5.406;2022-08-14T13:16:23;3.28;;;3.08;;
71734;SDS011;59577;52.122;5.406;2022-08-14T13:19:03;3.65;;;3.40;;
71734;SDS011;59577;52.122;5.406;2022-08-14T13:21:38;4.05;;;3.75;;
71734;SDS011;59577;52.122;5.406;2022-08-14T13:24:25;5.60;;;3.85;;
71734;SDS011;59577;52.122;5.406;2022-08-14T13:26:53;4.40;;;4.00;;
71734;SDS011;59577;52.122;5.406;2022-08-14T13:29:22;4.40;;;4.10;;
71734;SDS011;59577;52.122;5.406;2022-08-14T13:31:55;4.65;;;3.80;;
71734;SDS011;59577;52.122;5.406;2022-08-14T13:34:24;4.97;;;3.97;;
71734;SDS011;59577;52.122;5.406;2022-08-14T13:36:53;4.55;;;4.07;;
71734;SDS011;59577;52.122;5.406;2022-08-14T13:39:29;4.87;;;4.00;;
71734;SDS011;59577;52.122;5.406;2022-08-14T13:42:02;4.32;;;4.03;;
71734;SDS011;59577;52.122;5.406;2022-08-14T13:44:34;4.47;;;3.83;;
71734;SDS011;59577;52.122;5.406;2022-08-14T13:47:07;5.95;;;3.97;;
71734;SDS011;59577;52.122;5.406;2022-08-14T13:49:34;4.45;;;3.90;;
71734;SDS011;59577;52.122;5.406;2022-08-14T13:52:05;3.73;;;3.53;;
71734;SDS011;59577;52.122;5.406;2022-08-14T13:54:57;3.85;;;3.55;;
71734;SDS011;59577;52.122;5.406;2022-08-14T13:57:26;5.65;;;3.85;;
71734;SDS011;59577;52.122;5.406;2022-08-14T13:59:55;4.22;;;3.80;;
71734;SDS011;59577;52.122;5.406;2022-08-14T14:02:30;5.03;;;3.65;;
71734;SDS011;59577;52.122;5.406;2022-08-14T14:05:01;3.67;;;3.37;;
71734;SDS011;59577;52.122;5.406;2022-08-14T14:07:29;4.43;;;4.05;;
71734;SDS011;59577;52.122;5.406;2022-08-14T14:10:05;4.20;;;3.75;;
71734;SDS011;59577;52.122;5.406;2022-08-14T14:12:35;4.43;;;3.58;;
71734;SDS011;59577;52.122;5.406;2022-08-14T14:15:07;3.63;;;3.38;;
71734;SDS011;59577;52.122;5.406;2022-08-14T14:17:42;6.30;;;3.57;;
71734;SDS011;59577;52.122;5.406;2022-08-14T14:20:10;3.92;;;3.63;;
71734;SDS011;59577;52.122;5.406;2022-08-14T14:22:58;5.95;;;3.53;;
71734;SDS011;59577;52.122;5.406;2022-08-14T14:25:28;3.90;;;3.60;;
71734;SDS011;59577;52.122;5.406;2022-08-14T14:28:15;5.32;;;4.22;;
71734;SDS011;59577;52.122;5.406;2022-08-14T14:30:50;3.77;;;3.47;;
71734;SDS011;59577;52.122;5.406;2022-08-14T14:33:19;3.85;;;3.55;;
71734;SDS011;59577;52.122;5.406;2022-08-14T14:36:11;4.72;;;3.90;;
71734;SDS011;59577;52.122;5.406;2022-08-14T14:38:49;6.63;;;3.90;;
71734;SDS011;59577;52.122;5.406;2022-08-14T14:41:18;4.13;;;3.67;;
71734;SDS011;59577;52.122;5.406;2022-08-14T14:43:48;4.33;;;3.57;;
71734;SDS011;59577;52.122;5.406;2022-08-14T14:46:17;3.80;;;3.60;;
71734;SDS011;59577;52.122;5.406;2022-08-14T14:48:46;4.50;;;4.20;;
71734;SDS011;59577;52.122;5.406;2022-08-14T14:51:20;4.15;;;3.40;;
71734;SDS011;59577;52.122;5.406;2022-08-14T14:53:47;4.05;;;3.53;;
71734;SDS011;59577;52.122;5.406;2022-08-14T14:56:14;5.03;;;4.00;;
71734;SDS011;59577;52.122;5.406;2022-08-14T14:59:01;3.92;;;3.63;;
71734;SDS011;59577;52.122;5.406;2022-08-14T15:01:29;4.20;;;3.80;;
71734;SDS011;59577;52.122;5.406;2022-08-14T15:04:01;3.80;;;3.40;;
71734;SDS011;59577;52.122;5.406;2022-08-14T15:06:33;4.85;;;3.35;;
71734;SDS011;59577;52.122;5.406;2022-08-14T15:08:59;4.07;;;3.70;;
71734;SDS011;59577;52.122;5.406;2022-08-14T15:11:29;4.30;;;3.60;;
71734;SDS011;59577;52.122;5.406;2022-08-14T15:13:57;4.30;;;4.00;;
71734;SDS011;59577;52.122;5.406;2022-08-14T15:16:25;5.07;;;3.55;;
71734;SDS011;59577;52.122;5.406;2022-08-14T15:18:53;4.07;;;3.78;;
71734;SDS011;59577;52.122;5.406;2022-08-14T15:21:19;4.00;;;3.70;;
71734;SDS011;59577;52.122;5.406;2022-08-14T15:23:48;4.60;;;4.20;;
71734;SDS011;59577;52.122;5.406;2022-08-14T15:26:16;4.28;;;3.80;;
71734;SDS011;59577;52.122;5.406;2022-08-14T15:28:57;4.25;;;3.85;;
71734;SDS011;59577;52.122;5.406;2022-08-14T15:31:30;3.72;;;3.42;;
71734;SDS011;59577;52.122;5.406;2022-08-14T15:34:00;5.20;;;3.63;;
71734;SDS011;59577;52.122;5.406;2022-08-14T15:37:00;4.78;;;3.70;;
71734;SDS011;59577;52.122;5.406;2022-08-14T15:39:30;4.75;;;4.05;;